Time;durP1;ratioP1;P1;durP2;ratioP2;P2;SDS_P1;SDS_P2;PMS_P1;PMS_P2;Temp;Humidity;BMP_temperature;BMP_pressure;BME280_temperature;BME280_humidity;BME280_pressure;Samples;Min_cycle;Max_cycle;Signal;HPM_P1;HPM_P2
2022/06/02 00:01:17;;;;;;;10.70;7.37;;;15.60;99.90;;;;;;5054618;28;20499;-60
2022/06/02 00:04:05;;;;;;;11.37;8.33;;;15.60;99.90;;;;;;5054413;28;20186;-60
2022/06/02 00:06:51;;;;;;;14.33;9.67;;;15.60;99.90;;;;;;5054388;28;20212;-60
2022/06/02 00:09:17;;;;;;;16.47;8.27;;;15.50;99.90;;;;;;5055131;28;20169;-60
2022/06/02 00:11:54;;;;;;;15.50;7.70;;;15.30;99.90;;;;;;5074485;28;20227;-61
2022/06/02 00:14:56;;;;;;;15.17;7.93;;;15.20;99.90;;;;;;5074947;28;20197;-60
2022/06/02 00:17:35;;;;;;;13.23;8.13;;;15.10;99.90;;;;;;5061724;28;20257;-60
2022/06/02 00:20:08;;;;;;;15.60;9.20;;;15.10;99.90;;;;;;5074920;28;20197;-60
2022/06/02 00:23:00;;;;;;;13.33;8.50;;;15.00;99.90;;;;;;5074739;28;20177;-59
2022/06/02 00:25:39;;;;;;;13.27;8.63;;;15.10;99.90;;;;;;5074276;28;20174;-59
2022/06/02 00:28:17;;;;;;;16.27;9.17;;;15.20;99.90;;;;;;5074724;28;20169;-59
2022/06/02 00:30:56;;;;;;;12.97;8.10;;;15.20;99.90;;;;;;5074743;28;20680;-59
2022/06/02 00:33:34;;;;;;;12.97;8.10;;;15.10;99.90;;;;;;5074338;28;20236;-60
2022/06/02 00:36:05;;;;;;;11.37;8.47;;;15.10;99.90;;;;;;5074442;28;20583;-59
2022/06/02 00:38:36;;;;;;;19.07;9.07;;;15.20;99.90;;;;;;5074332;28;20172;-60
2022/06/02 00:41:18;;;;;;;16.83;9.97;;;15.20;99.90;;;;;;5074299;28;20165;-59
2022/06/02 00:44:41;;;;;;;14.43;9.20;;;15.20;99.90;;;;;;5074265;28;20173;-61
2022/06/02 00:47:33;;;;;;;19.10;10.20;;;15.10;99.90;;;;;;5031977;28;20193;-60
2022/06/02 00:50:23;;;;;;;19.67;10.80;;;15.00;99.90;;;;;;5030183;28;20219;-61
2022/06/02 00:53:11;;;;;;;19.40;10.07;;;15.00;99.90;;;;;;5045587;28;20221;-60
2022/06/02 00:58:55;;;;;;;16.37;10.20;;;14.90;99.90;;;;;;5053731;28;20191;-59
2022/06/02 01:01:31;;;;;;;16.30;10.80;;;14.80;99.90;;;;;;5054241;28;20197;-59
2022/06/02 01:04:00;;;;;;;18.63;10.67;;;14.70;99.90;;;;;;5053747;28;20182;-60
2022/06/02 01:06:41;;;;;;;19.87;11.33;;;14.60;99.90;;;;;;5053959;28;20825;-59
2022/06/02 01:09:43;;;;;;;16.53;10.40;;;14.60;99.90;;;;;;5054028;28;20258;-59
2022/06/02 01:12:45;;;;;;;24.63;11.00;;;14.60;99.90;;;;;;5033908;28;20205;-60
2022/06/02 01:15:40;;;;;;;20.50;11.17;;;14.60;99.90;;;;;;5034001;28;20202;-60
2022/06/02 01:18:25;;;;;;;15.60;10.70;;;14.50;99.90;;;;;;5022533;28;20192;-60
2022/06/02 01:21:03;;;;;;;15.77;10.57;;;14.40;99.90;;;;;;5033720;28;20188;-60
2022/06/02 01:23:38;;;;;;;17.00;10.70;;;14.40;99.90;;;;;;5033324;28;20229;-60
2022/06/02 01:26:04;;;;;;;19.73;11.07;;;14.50;99.90;;;;;;5033653;28;20161;-60
2022/06/02 01:28:42;;;;;;;23.33;10.93;;;14.50;99.90;;;;;;5033624;28;20175;-69
2022/06/02 01:31:33;;;;;;;20.87;11.53;;;14.50;99.90;;;;;;5033722;28;20175;-60
2022/06/02 01:34:19;;;;;;;24.53;10.67;;;14.50;99.90;;;;;;5033674;28;20538;-60
2022/06/02 01:36:57;;;;;;;23.63;10.80;;;14.50;99.90;;;;;;5032786;28;20163;-60
2022/06/02 01:39:42;;;;;;;26.20;11.17;;;14.40;99.90;;;;;;5033461;28;20529;-59
2022/06/02 01:42:26;;;;;;;22.07;12.53;;;14.40;99.90;;;;;;5033750;28;20178;-60
2022/06/02 01:45:27;;;;;;;25.53;10.87;;;14.40;99.90;;;;;;5032922;28;20237;-60
2022/06/02 01:48:32;;;;;;;23.27;11.60;;;14.40;99.90;;;;;;5025933;28;20191;-61
2022/06/02 01:51:22;;;;;;;22.23;12.67;;;14.40;99.90;;;;;;5042884;28;20546;-61
2022/06/02 01:54:17;;;;;;;25.80;11.83;;;14.50;99.90;;;;;;5052663;28;20173;-62
2022/06/02 01:56:49;;;;;;;18.00;10.87;;;14.50;99.90;;;;;;5043365;28;20205;-60
2022/06/02 01:59:52;;;;;;;26.50;12.07;;;14.40;99.90;;;;;;5052888;28;20273;-61
2022/06/02 02:02:55;;;;;;;31.53;11.97;;;14.50;99.90;;;;;;5051627;28;20304;-60
2022/06/02 02:05:52;;;;;;;29.20;12.17;;;14.50;99.90;;;;;;5052889;28;20186;-60
2022/06/02 02:08:30;;;;;;;21.60;11.53;;;14.40;99.90;;;;;;5052784;28;20174;-59
2022/06/02 02:11:23;;;;;;;21.60;11.17;;;14.40;99.90;;;;;;5052556;28;20173;-60
2022/06/02 02:13:57;;;;;;;22.77;11.97;;;14.30;99.90;;;;;;5052732;28;20177;-60
2022/06/02 02:17:24;;;;;;;21.20;11.57;;;14.40;99.90;;;;;;5052244;28;20186;-60
2022/06/02 02:19:59;;;;;;;19.33;11.77;;;14.40;99.90;;;;;;4990777;28;20273;-60
2022/06/02 02:22:45;;;;;;;21.27;12.20;;;14.40;99.90;;;;;;4990938;28;20182;-60
2022/06/02 02:25:17;;;;;;;26.07;13.23;;;14.40;99.90;;;;;;5031627;28;20209;-60
2022/06/02 02:28:03;;;;;;;23.80;13.33;;;14.30;99.90;;;;;;5052362;28;20186;-60
2022/06/02 02:31:05;;;;;;;24.00;12.67;;;14.30;99.90;;;;;;5052231;28;20291;-60
2022/06/02 02:33:44;;;;;;;24.67;13.00;;;14.40;99.90;;;;;;5052396;28;20349;-60
2022/06/02 02:36:31;;;;;;;27.40;12.33;;;14.40;99.90;;;;;;5052040;28;20186;-60
2022/06/02 02:38:59;;;;;;;23.43;13.23;;;14.40;99.90;;;;;;5052074;28;20178;-60
2022/06/02 02:41:59;;;;;;;22.30;13.17;;;14.40;99.90;;;;;;5052177;28;20174;-60
2022/06/02 02:45:00;;;;;;;25.37;14.20;;;14.50;99.90;;;;;;5052217;28;20173;-60
2022/06/02 02:47:36;;;;;;;30.30;13.73;;;14.60;99.90;;;;;;5052151;28;20169;-61
2022/06/02 02:50:10;;;;;;;25.90;13.30;;;14.60;99.90;;;;;;5052042;28;20163;-60
2022/06/02 02:53:06;;;;;;;26.47;14.40;;;14.60;99.90;;;;;;5051928;28;20194;-61
2022/06/02 02:55:39;;;;;;;24.03;13.07;;;14.70;99.90;;;;;;5051692;28;20178;-60
2022/06/02 02:58:08;;;;;;;30.73;13.60;;;14.80;99.90;;;;;;5051810;28;20208;-60
2022/06/02 03:00:52;;;;;;;23.57;12.57;;;14.80;99.90;;;;;;5051942;28;20507;-60
2022/06/02 03:03:53;;;;;;;24.60;12.97;;;14.80;99.90;;;;;;5052127;28;20559;-60
2022/06/02 03:06:32;;;;;;;29.17;13.03;;;14.80;99.90;;;;;;5049360;28;20629;-61
2022/06/02 03:09:10;;;;;;;21.20;12.37;;;14.80;99.90;;;;;;5051697;28;20592;-60
2022/06/02 03:11:53;;;;;;;21.40;12.83;;;14.80;99.90;;;;;;5051731;28;20205;-60
2022/06/02 03:14:31;;;;;;;31.10;13.27;;;14.80;99.90;;;;;;5051758;28;20178;-62
2022/06/02 03:17:19;;;;;;;26.40;12.70;;;14.90;99.90;;;;;;5051305;28;20177;-60
2022/06/02 03:19:59;;;;;;;15.97;11.13;;;14.90;99.90;;;;;;5051425;28;20222;-61
2022/06/02 03:22:41;;;;;;;24.07;12.07;;;14.90;99.90;;;;;;5051611;28;20181;-60
2022/06/02 03:25:16;;;;;;;19.97;11.00;;;14.90;99.90;;;;;;5051446;28;20219;-61
2022/06/02 03:28:04;;;;;;;25.70;11.73;;;15.00;99.90;;;;;;5051258;28;20593;-60
2022/06/02 03:30:45;;;;;;;21.37;11.77;;;15.00;99.90;;;;;;5051407;28;20162;-59
2022/06/02 03:33:37;;;;;;;21.20;10.83;;;15.10;99.90;;;;;;5051398;28;20233;-60
2022/06/02 03:36:32;;;;;;;18.63;10.47;;;15.20;99.90;;;;;;5051320;28;20178;-61
2022/06/02 03:39:08;;;;;;;22.40;10.63;;;15.30;99.90;;;;;;5051335;28;20215;-60
2022/06/02 03:41:55;;;;;;;16.47;10.73;;;15.40;99.90;;;;;;5051210;28;20496;-60
2022/06/02 03:44:42;;;;;;;21.87;11.73;;;15.50;99.90;;;;;;5051489;28;20646;-60
2022/06/02 03:47:25;;;;;;;33.90;12.00;;;15.50;99.90;;;;;;5051297;28;20178;-60
2022/06/02 03:50:09;;;;;;;20.20;12.17;;;15.60;99.90;;;;;;5050736;28;20210;-61
2022/06/02 03:52:53;;;;;;;22.13;11.70;;;15.60;99.90;;;;;;5050975;28;20601;-60
2022/06/02 03:55:45;;;;;;;21.67;12.07;;;15.60;99.90;;;;;;5051109;28;20471;-60
2022/06/02 03:58:23;;;;;;;31.77;12.83;;;15.80;99.90;;;;;;5051060;28;20181;-63
2022/06/02 04:00:54;;;;;;;22.60;10.87;;;15.90;99.90;;;;;;5054083;28;20177;-61
2022/06/02 04:03:39;;;;;;;19.40;10.93;;;16.00;99.90;;;;;;5054948;28;20186;-61
2022/06/02 04:06:40;;;;;;;27.07;10.93;;;16.10;99.90;;;;;;5054750;28;20203;-61
2022/06/02 04:09:14;;;;;;;26.40;10.60;;;16.30;99.90;;;;;;5054383;28;20186;-60
2022/06/02 04:14:46;;;;;;;22.07;10.67;;;16.60;99.90;;;;;;5053981;28;20178;-60
2022/06/02 04:17:30;;;;;;;20.77;9.70;;;16.60;99.90;;;;;;5054425;28;20189;-61
2022/06/02 04:23:33;;;;;;;14.87;8.13;;;16.90;99.90;;;;;;5053699;28;20182;-60
2022/06/02 04:26:04;;;;;;;22.83;8.30;;;17.10;99.90;;;;;;5042876;28;20272;-61
2022/06/02 04:28:56;;;;;;;28.17;8.37;;;17.20;99.90;;;;;;5053974;28;20174;-60
2022/06/02 04:31:51;;;;;;;22.30;8.13;;;17.30;99.90;;;;;;5053959;28;20533;-60
2022/06/02 04:34:37;;;;;;;14.43;8.07;;;17.40;99.90;;;;;;5044911;28;20214;-60
2022/06/02 04:37:12;;;;;;;17.27;8.00;;;17.60;99.90;;;;;;5052329;28;20514;-61
2022/06/02 04:40:03;;;;;;;16.33;7.43;;;17.70;99.90;;;;;;5053726;28;20259;-63
2022/06/02 04:42:50;;;;;;;20.43;8.00;;;17.80;99.90;;;;;;5052148;28;20297;-59
2022/06/02 04:45:29;;;;;;;19.70;9.07;;;18.00;99.90;;;;;;5053690;28;20171;-59
2022/06/02 04:48:10;;;;;;;17.60;8.20;;;18.10;99.90;;;;;;5053223;28;20221;-62
2022/06/02 04:50:55;;;;;;;22.37;7.73;;;18.10;99.90;;;;;;5053204;28;20196;-60
2022/06/02 04:53:32;;;;;;;12.53;7.60;;;18.20;99.90;;;;;;5053112;28;20676;-59
2022/06/02 04:56:32;;;;;;;12.50;7.37;;;18.30;99.90;;;;;;5051192;28;20520;-61
2022/06/02 04:59:14;;;;;;;18.87;7.73;;;18.30;99.90;;;;;;5053277;28;20186;-59
2022/06/02 05:02:02;;;;;;;22.00;7.50;;;18.50;99.90;;;;;;5052930;28;20174;-60
2022/06/02 05:04:53;;;;;;;11.13;6.50;;;18.60;99.90;;;;;;5053075;28;20269;-59
2022/06/02 05:07:58;;;;;;;12.68;6.80;;;18.70;99.90;;;;;;5053111;28;20178;-60
2022/06/02 05:10:44;;;;;;;10.53;7.30;;;18.80;99.90;;;;;;5052046;28;20263;-61
2022/06/02 05:13:22;;;;;;;22.38;8.48;;;19.00;99.90;;;;;;5030836;28;20264;-60
2022/06/02 05:15:54;;;;;;;15.82;7.53;;;19.20;99.90;;;;;;5053666;28;20202;-59
2022/06/02 05:18:50;;;;;;;13.43;7.30;;;19.20;99.90;;;;;;5054004;28;20271;-60
2022/06/02 05:21:37;;;;;;;15.77;7.55;;;19.20;99.90;;;;;;5052770;28;20183;-59
2022/06/02 05:24:53;;;;;;;17.23;8.07;;;19.30;99.90;;;;;;5052660;28;20287;-59
2022/06/02 05:28:00;;;;;;;17.50;7.75;;;19.50;99.90;;;;;;5010881;28;20187;-58
2022/06/02 05:30:39;;;;;;;13.23;7.25;;;19.60;99.90;;;;;;5032314;28;20186;-59
2022/06/02 05:33:26;;;;;;;25.45;8.25;;;19.70;99.90;;;;;;5052322;28;20218;-59
2022/06/02 05:36:12;;;;;;;17.83;7.18;;;19.70;99.90;;;;;;5052273;28;20278;-60
2022/06/02 05:38:43;;;;;;;11.43;6.75;;;19.80;99.90;;;;;;5052199;28;20558;-60
2022/06/02 05:41:20;;;;;;;16.67;7.32;;;19.80;99.90;;;;;;5052430;28;20253;-60
2022/06/02 05:44:06;;;;;;;17.75;7.80;;;19.90;99.90;;;;;;5052019;28;20299;-59
2022/06/02 05:46:53;;;;;;;17.58;7.13;;;20.10;99.90;;;;;;5052102;28;20757;-60
2022/06/02 05:49:42;;;;;;;11.85;6.00;;;20.20;99.90;;;;;;5051799;28;20268;-59
2022/06/02 05:52:39;;;;;;;12.80;6.72;;;20.30;99.90;;;;;;5051469;28;20195;-59
2022/06/02 05:55:23;;;;;;;13.95;6.47;;;20.40;99.90;;;;;;5051623;28;20538;-59
2022/06/02 05:58:15;;;;;;;15.93;7.32;;;20.50;99.90;;;;;;5042835;28;20200;-59
2022/06/02 06:01:04;;;;;;;12.05;7.55;;;20.60;99.90;;;;;;5058780;28;20579;-60
2022/06/02 06:03:53;;;;;;;12.82;7.20;;;20.80;99.90;;;;;;5060801;28;20488;-58
2022/06/02 06:06:41;;;;;;;13.25;6.68;;;20.90;99.90;;;;;;5051439;28;20198;-61
2022/06/02 06:09:28;;;;;;;15.32;7.75;;;20.90;99.90;;;;;;5067666;28;20194;-61
2022/06/02 06:12:27;;;;;;;16.02;7.20;;;21.00;99.90;;;;;;5051530;28;20271;-60
2022/06/02 06:15:03;;;;;;;18.00;7.15;;;21.10;99.90;;;;;;5055949;28;20261;-60
2022/06/02 06:17:43;;;;;;;24.70;7.93;;;21.20;99.90;;;;;;5071355;28;20185;-60
2022/06/02 06:20:27;;;;;;;15.38;8.00;;;21.40;99.90;;;;;;5070701;28;20645;-60
2022/06/02 06:23:21;;;;;;;29.02;9.15;;;21.50;99.90;;;;;;5069791;28;20268;-61
2022/06/02 06:25:58;;;;;;;26.90;9.50;;;21.60;99.90;;;;;;5044925;28;20634;-65
2022/06/02 06:28:32;;;;;;;29.23;16.85;;;21.80;99.90;;;;;;5071507;28;20195;-61
2022/06/02 06:31:16;;;;;;;21.15;8.73;;;22.00;99.90;;;;;;5064644;28;20201;-60
2022/06/02 06:33:56;;;;;;;17.92;8.07;;;22.10;99.90;;;;;;5052008;28;20354;-60
2022/06/02 06:36:47;;;;;;;27.83;10.30;;;22.10;99.90;;;;;;5063364;28;20338;-60
2022/06/02 06:39:26;;;;;;;16.58;8.52;;;22.30;99.90;;;;;;5070770;28;20695;-60
2022/06/02 06:42:10;;;;;;;24.15;8.32;;;22.30;99.90;;;;;;5065600;28;20194;-60
2022/06/02 06:44:51;;;;;;;23.65;7.97;;;22.40;99.90;;;;;;5064363;28;20185;-60
2022/06/02 06:47:39;;;;;;;18.92;7.25;;;22.50;99.90;;;;;;5071328;28;20219;-60
2022/06/02 06:50:22;;;;;;;22.55;8.32;;;22.40;99.90;;;;;;5067840;28;20212;-60
2022/06/02 06:53:00;;;;;;;24.02;8.30;;;22.20;99.90;;;;;;5050278;28;20214;-62
2022/06/02 06:55:48;;;;;;;20.55;7.75;;;22.30;99.90;;;;;;5057205;28;20220;-60
2022/06/02 06:58:40;;;;;;;13.90;6.97;;;22.50;99.90;;;;;;5068238;28;20194;-61
2022/06/02 07:01:45;;;;;;;14.30;7.55;;;22.70;99.90;;;;;;5063420;28;20549;-60
2022/06/02 07:04:30;;;;;;;22.27;8.55;;;22.90;99.90;;;;;;5052642;28;20243;-60
2022/06/02 07:07:34;;;;;;;30.45;9.98;;;23.10;99.90;;;;;;5057638;28;20281;-61
2022/06/02 07:10:13;;;;;;;22.00;8.80;;;23.30;99.90;;;;;;5026781;28;20197;-61
2022/06/02 07:13:06;;;;;;;25.55;9.38;;;23.60;99.90;;;;;;5070424;28;20209;-61
2022/06/02 07:15:47;;;;;;;23.35;9.02;;;23.90;99.90;;;;;;5070674;28;20200;-60
2022/06/02 07:18:38;;;;;;;16.40;8.00;;;24.20;99.90;;;;;;5069113;28;20169;-60
2022/06/02 07:21:38;;;;;;;18.83;7.78;;;24.30;99.90;;;;;;5069214;28;20188;-61
2022/06/02 07:24:09;;;;;;;21.50;8.40;;;24.30;99.90;;;;;;5069114;28;20225;-61
2022/06/02 07:26:51;;;;;;;10.57;6.85;;;24.60;99.90;;;;;;5069479;28;20515;-61
2022/06/02 07:29:32;;;;;;;19.27;7.63;;;24.90;99.90;;;;;;5069095;28;20169;-61
2022/06/02 07:32:07;;;;;;;18.75;6.38;;;25.10;99.90;;;;;;5070111;28;20646;-62
2022/06/02 07:35:13;;;;;;;9.85;6.22;;;25.10;99.90;;;;;;5071399;28;20557;-61
2022/06/02 07:38:14;;;;;;;16.45;7.50;;;25.10;99.90;;;;;;5074666;28;20185;-60
2022/06/02 07:41:01;;;;;;;16.00;6.28;;;25.10;99.90;;;;;;5074661;28;20311;-62
2022/06/02 07:43:52;;;;;;;18.50;6.20;;;25.10;99.90;;;;;;5074842;28;20342;-60
2022/06/02 07:46:24;;;;;;;13.60;6.47;;;25.20;99.90;;;;;;5054389;28;20186;-60
2022/06/02 07:49:23;;;;;;;10.38;5.88;;;25.10;99.90;;;;;;5074477;28;20353;-59
2022/06/02 07:52:17;;;;;;;12.68;6.07;;;25.10;99.90;;;;;;5056144;28;20354;-60
2022/06/02 07:55:01;;;;;;;13.70;5.72;;;25.10;99.90;;;;;;5054157;28;20292;-61
2022/06/02 07:57:45;;;;;;;11.63;4.78;;;25.10;99.90;;;;;;5053665;28;20163;-62
2022/06/02 08:00:21;;;;;;;8.88;4.95;;;25.10;99.30;;;;;;5053217;28;20586;-60
2022/06/02 08:03:08;;;;;;;13.93;5.75;;;25.00;99.60;;;;;;5054227;28;20177;-60
2022/06/02 08:05:52;;;;;;;15.93;6.70;;;25.20;99.70;;;;;;5054078;28;20180;-62
2022/06/02 08:08:29;;;;;;;15.18;5.13;;;25.40;98.80;;;;;;5053866;28;20220;-61
2022/06/02 08:11:10;;;;;;;12.50;4.45;;;25.50;97.50;;;;;;5066921;28;20656;-60
2022/06/02 08:13:43;;;;;;;16.45;4.55;;;25.50;96.80;;;;;;5073001;28;20228;-62
2022/06/02 08:16:16;;;;;;;11.10;4.97;;;25.50;96.20;;;;;;5072900;28;20196;-61
2022/06/02 08:19:13;;;;;;;20.30;5.80;;;25.50;96.20;;;;;;5073875;28;20243;-61
2022/06/02 08:21:42;;;;;;;11.98;4.45;;;25.60;96.30;;;;;;5071877;28;20635;-61
2022/06/02 08:24:33;;;;;;;18.08;5.22;;;25.50;96.10;;;;;;5072381;28;20719;-62
2022/06/02 08:27:29;;;;;;;12.48;5.35;;;25.60;96.50;;;;;;5073016;28;20578;-62
2022/06/02 08:30:17;;;;;;;18.65;6.40;;;25.50;96.50;;;;;;5073042;28;20482;-62
2022/06/02 08:33:10;;;;;;;11.40;5.35;;;25.70;96.70;;;;;;5073674;28;20217;-60
2022/06/02 08:36:17;;;;;;;9.73;5.18;;;25.90;95.70;;;;;;5073542;28;20902;-60
2022/06/02 08:39:04;;;;;;;9.43;4.53;;;25.70;95.70;;;;;;5071131;28;20199;-61
2022/06/02 08:42:16;;;;;;;16.98;5.00;;;25.80;96.00;;;;;;5073698;28;20174;-61
2022/06/02 08:44:47;;;;;;;13.80;5.20;;;26.00;95.70;;;;;;5072613;28;20252;-62
2022/06/02 08:47:48;;;;;;;16.33;7.40;;;26.10;95.60;;;;;;5072450;28;20182;-62
2022/06/02 08:50:29;;;;;;;14.50;5.40;;;26.30;95.50;;;;;;5045681;28;20200;-62
2022/06/02 08:53:25;;;;;;;16.70;6.07;;;26.60;94.80;;;;;;5052100;28;20201;-70
2022/06/02 08:56:13;;;;;;;15.23;5.00;;;26.90;94.40;;;;;;5052231;28;20238;-61
2022/06/02 08:59:07;;;;;;;14.20;5.68;;;27.00;94.00;;;;;;5052571;28;20232;-62
2022/06/02 09:01:56;;;;;;;14.68;7.22;;;27.00;93.50;;;;;;5052579;28;20174;-62
2022/06/02 09:04:31;;;;;;;31.92;6.97;;;27.10;92.70;;;;;;5052526;28;20260;-62
2022/06/02 09:07:35;;;;;;;22.65;5.82;;;27.30;92.80;;;;;;5052514;28;20556;-62
2022/06/02 09:10:28;;;;;;;9.00;4.60;;;27.20;92.20;;;;;;5058603;28;20180;-61
2022/06/02 09:13:28;;;;;;;9.38;4.82;;;27.20;91.80;;;;;;5072721;28;20538;-60
2022/06/02 09:16:19;;;;;;;10.52;4.60;;;27.20;91.10;;;;;;5070959;28;20626;-60
2022/06/02 09:19:09;;;;;;;21.10;5.35;;;27.20;89.80;;;;;;5072243;28;20573;-61
2022/06/02 09:21:56;;;;;;;11.02;3.88;;;27.30;91.20;;;;;;5072668;28;20162;-61
2022/06/02 09:24:36;;;;;;;15.88;4.47;;;27.50;86.20;;;;;;5072062;28;20542;-62
2022/06/02 09:27:33;;;;;;;10.35;4.47;;;27.60;81.90;;;;;;5071809;28;20208;-60
2022/06/02 09:30:23;;;;;;;12.30;4.93;;;27.80;79.70;;;;;;5072164;28;20323;-62
2022/06/02 09:33:35;;;;;;;14.43;5.15;;;28.00;77.10;;;;;;5071960;28;20256;-62
2022/06/02 09:36:37;;;;;;;7.63;4.50;;;28.10;78.90;;;;;;5071580;28;20161;-60
2022/06/02 09:39:21;;;;;;;10.27;3.20;;;28.20;77.30;;;;;;5071456;28;20614;-61
2022/06/02 09:42:17;;;;;;;14.93;4.10;;;28.30;75.30;;;;;;5072490;28;20202;-61
2022/06/02 09:44:43;;;;;;;13.18;4.90;;;28.30;73.40;;;;;;5071564;28;20540;-60
2022/06/02 09:47:27;;;;;;;8.65;3.72;;;28.60;75.00;;;;;;5071415;28;20239;-61
2022/06/02 09:50:12;;;;;;;16.33;5.10;;;28.70;72.60;;;;;;5071112;28;20181;-61
2022/06/02 09:53:15;;;;;;;9.90;3.50;;;28.80;70.20;;;;;;5051582;28;20202;-61
2022/06/02 09:55:59;;;;;;;9.95;3.97;;;29.00;69.70;;;;;;5050207;28;20262;-61
2022/06/02 09:59:03;;;;;;;14.23;5.38;;;29.00;69.90;;;;;;5049098;28;20315;-61
2022/06/02 10:01:47;;;;;;;14.10;4.40;;;29.20;70.00;;;;;;5051633;28;20184;-60
2022/06/02 10:04:43;;;;;;;7.55;3.28;;;29.20;68.40;;;;;;5051045;28;20182;-62
2022/06/02 10:07:39;;;;;;;10.00;4.40;;;29.10;66.80;;;;;;5051185;28;20507;-61
2022/06/02 10:10:40;;;;;;;21.52;4.47;;;29.20;68.40;;;;;;5057600;28;20170;-60
2022/06/02 10:13:09;;;;;;;8.60;3.70;;;29.30;66.50;;;;;;5071169;28;20633;-60
2022/06/02 10:15:40;;;;;;;8.18;3.50;;;29.50;64.50;;;;;;5071016;28;20268;-61
2022/06/02 10:18:25;;;;;;;13.05;3.83;;;29.70;63.80;;;;;;5071306;28;20186;-61
2022/06/02 10:21:12;;;;;;;9.25;3.53;;;30.00;64.50;;;;;;5071074;28;20173;-62
2022/06/02 10:23:53;;;;;;;13.40;3.88;;;30.20;63.60;;;;;;5070713;28;20307;-61
2022/06/02 10:26:37;;;;;;;10.90;4.78;;;30.30;63.20;;;;;;5070489;28;20489;-62
2022/06/02 10:29:21;;;;;;;10.10;4.47;;;30.60;62.50;;;;;;5070504;28;20679;-62
2022/06/02 10:32:09;;;;;;;18.80;4.90;;;30.60;63.50;;;;;;5068757;28;20181;-62
2022/06/02 10:35:06;;;;;;;9.40;3.63;;;30.60;62.00;;;;;;5070758;28;20185;-61
2022/06/02 10:37:50;;;;;;;9.80;4.18;;;30.70;61.30;;;;;;5071059;28;20189;-62
2022/06/02 10:40:44;;;;;;;7.53;3.13;;;30.90;62.00;;;;;;5070927;28;20295;-61
2022/06/02 10:43:24;;;;;;;16.98;5.38;;;31.30;61.10;;;;;;5070490;28;20178;-60
2022/06/02 10:45:53;;;;;;;14.30;4.30;;;31.40;60.70;;;;;;5070794;28;20633;-62
2022/06/02 10:48:27;;;;;;;10.45;4.28;;;31.60;59.70;;;;;;5070337;28;20184;-61
2022/06/02 10:51:20;;;;;;;15.00;5.40;;;31.30;60.00;;;;;;5060709;28;20174;-60
2022/06/02 10:53:50;;;;;;;9.82;4.20;;;31.30;60.60;;;;;;5050672;28;20201;-62
2022/06/02 10:56:34;;;;;;;10.43;3.70;;;31.00;61.80;;;;;;5050391;28;20232;-61
2022/06/02 10:59:46;;;;;;;8.63;3.90;;;31.00;63.50;;;;;;5050804;28;20182;-61
2022/06/02 11:02:36;;;;;;;12.55;3.45;;;30.70;62.10;;;;;;5050661;28;20617;-62
2022/06/02 11:05:29;;;;;;;19.73;4.13;;;30.70;61.30;;;;;;5050776;28;20186;-61
2022/06/02 11:08:34;;;;;;;9.38;3.40;;;30.90;60.10;;;;;;5050692;28;20178;-62
2022/06/02 11:11:22;;;;;;;18.73;4.35;;;31.10;58.70;;;;;;5064766;28;20208;-61
2022/06/02 11:14:00;;;;;;;14.30;3.70;;;31.70;58.30;;;;;;5050825;28;20677;-63
2022/06/02 11:16:58;;;;;;;9.65;5.13;;;32.30;57.00;;;;;;5069790;28;20611;-62
2022/06/02 11:19:48;;;;;;;6.70;3.33;;;32.70;56.90;;;;;;5032621;28;20195;-61
2022/06/02 11:22:32;;;;;;;18.90;4.70;;;33.10;58.20;;;;;;5070209;28;20235;-61
2022/06/02 11:25:35;;;;;;;10.23;3.80;;;34.30;57.70;;;;;;5070221;28;20594;-61
2022/06/02 11:28:21;;;;;;;9.27;3.78;;;34.90;54.10;;;;;;5070353;28;20169;-62
2022/06/02 11:31:26;;;;;;;8.40;4.25;;;34.30;52.50;;;;;;5068895;28;20186;-62
2022/06/02 11:34:08;;;;;;;14.70;4.70;;;34.30;52.50;;;;;;5053973;28;20286;-62
2022/06/02 11:36:43;;;;;;;13.02;3.42;;;35.60;51.40;;;;;;5069409;28;20178;-61
2022/06/02 11:39:08;;;;;;;8.32;3.60;;;36.70;48.80;;;;;;5070326;28;20298;-63
2022/06/02 11:41:43;;;;;;;8.95;3.55;;;38.20;47.20;;;;;;5070380;28;20204;-61
2022/06/02 11:44:11;;;;;;;17.63;4.70;;;39.10;45.20;;;;;;5070267;28;20165;-64
2022/06/02 11:47:14;;;;;;;12.65;4.47;;;38.80;44.50;;;;;;5070454;28;20598;-62
2022/06/02 11:50:17;;;;;;;11.35;4.18;;;37.40;45.20;;;;;;5048956;28;20193;-62
2022/06/02 11:52:45;;;;;;;19.23;4.53;;;36.20;47.80;;;;;;5030554;28;20626;-62
2022/06/02 11:55:32;;;;;;;12.63;3.80;;;35.90;48.00;;;;;;5030329;28;20182;-62
2022/06/02 11:58:39;;;;;;;9.25;4.18;;;36.20;47.60;;;;;;5030582;28;20158;-60
2022/06/02 12:01:12;;;;;;;11.15;3.72;;;36.70;46.40;;;;;;5016375;28;20190;-63
2022/06/02 12:03:44;;;;;;;12.02;3.83;;;36.50;46.00;;;;;;5030337;28;20619;-61
2022/06/02 12:06:47;;;;;;;8.52;3.25;;;37.70;45.20;;;;;;5029974;28;20212;-62
2022/06/02 12:09:33;;;;;;;9.23;3.97;;;38.20;44.60;;;;;;5029669;28;20232;-62
2022/06/02 12:12:29;;;;;;;32.85;5.22;;;38.60;43.70;;;;;;5030417;28;20213;-60
2022/06/02 12:14:55;;;;;;;15.95;4.60;;;38.70;43.50;;;;;;5030367;28;20239;-60
2022/06/02 12:18:04;;;;;;;9.30;3.83;;;39.60;42.60;;;;;;5030216;28;20626;-61
2022/06/02 12:21:04;;;;;;;6.45;3.55;;;40.00;41.40;;;;;;5031483;28;20176;-63
2022/06/02 12:23:54;;;;;;;8.07;3.97;;;39.80;42.40;;;;;;5033538;28;20306;-62
2022/06/02 12:26:29;;;;;;;6.53;4.03;;;38.80;43.10;;;;;;5033308;28;20178;-62
2022/06/02 12:29:09;;;;;;;8.00;3.92;;;38.30;43.60;;;;;;5033649;28;20250;-62
2022/06/02 12:32:18;;;;;;;15.18;5.07;;;37.80;45.00;;;;;;5031946;28;20262;-63
2022/06/02 12:34:56;;;;;;;14.82;5.25;;;37.20;45.40;;;;;;5033331;28;20551;-61
2022/06/02 12:37:30;;;;;;;11.23;4.85;;;36.90;46.60;;;;;;5037893;28;20322;-62
2022/06/02 12:40:33;;;;;;;11.82;4.60;;;37.20;46.60;;;;;;5053638;28;20224;-61
2022/06/02 12:43:23;;;;;;;8.68;4.32;;;37.70;44.80;;;;;;5033039;28;20646;-61
2022/06/02 12:46:13;;;;;;;11.52;4.10;;;37.90;45.10;;;;;;5033120;28;20257;-60
2022/06/02 12:49:09;;;;;;;10.77;3.45;;;39.80;44.10;;;;;;5032956;28;20221;-60
2022/06/02 12:51:57;;;;;;;9.23;3.78;;;41.10;40.90;;;;;;5047728;28;20245;-62
2022/06/02 12:54:56;;;;;;;11.07;4.70;;;38.70;43.00;;;;;;5052557;28;20193;-59
2022/06/02 12:57:47;;;;;;;11.35;4.40;;;36.50;45.10;;;;;;5060869;28;20193;-64
2022/06/02 13:00:45;;;;;;;11.45;4.07;;;35.70;47.70;;;;;;5041923;28;20204;-66
2022/06/02 13:03:19;;;;;;;16.52;4.47;;;36.50;47.20;;;;;;5061722;28;20287;-61
2022/06/02 13:06:10;;;;;;;15.07;4.50;;;37.40;45.50;;;;;;5062009;28;20204;-64
2022/06/02 13:08:59;;;;;;;11.35;4.15;;;38.60;44.00;;;;;;5061068;28;20271;-64
2022/06/02 13:11:56;;;;;;;16.50;6.65;;;39.50;44.10;;;;;;5061478;28;20193;-61
2022/06/02 13:14:49;;;;;;;8.85;4.45;;;41.00;42.00;;;;;;5059983;28;20671;-61
2022/06/02 13:17:40;;;;;;;17.08;5.75;;;41.80;40.50;;;;;;5058947;28;20208;-61
2022/06/02 13:20:25;;;;;;;11.82;4.03;;;42.50;39.70;;;;;;5060499;28;20192;-61
2022/06/02 13:23:12;;;;;;;8.60;4.00;;;43.60;38.70;;;;;;5058559;28;20189;-65
2022/06/02 13:25:57;;;;;;;8.70;4.78;;;44.30;38.60;;;;;;5059735;28;20197;-62
2022/06/02 13:28:46;;;;;;;19.10;4.75;;;46.10;37.10;;;;;;5059130;28;20228;-62
2022/06/02 13:31:15;;;;;;;8.30;4.18;;;47.30;35.70;;;;;;5060055;28;20625;-61
2022/06/02 13:34:10;;;;;;;7.13;3.70;;;47.10;34.60;;;;;;5059425;28;20258;-62
2022/06/02 13:36:54;;;;;;;8.65;3.92;;;45.40;34.00;;;;;;5061188;28;20185;-62
2022/06/02 13:39:57;;;;;;;8.43;3.92;;;43.70;35.60;;;;;;5060728;28;20235;-61
2022/06/02 13:42:48;;;;;;;23.10;11.98;;;42.00;38.20;;;;;;5060141;28;20258;-63
2022/06/02 13:45:35;;;;;;;6.82;3.70;;;42.30;37.80;;;;;;5061086;28;20186;-64
2022/06/02 13:48:23;;;;;;;8.32;3.83;;;41.60;37.70;;;;;;5060673;28;20192;-61
2022/06/02 13:51:22;;;;;;;12.10;3.60;;;38.80;39.90;;;;;;5061168;28;20572;-62
2022/06/02 13:57:30;;;;;;;13.60;4.32;;;34.70;45.90;;;;;;5056594;28;20205;-64
2022/06/02 14:00:03;;;;;;;12.45;4.18;;;33.30;48.30;;;;;;5061167;28;20173;-62
2022/06/02 14:02:50;;;;;;;15.07;4.55;;;32.80;49.20;;;;;;5061011;28;20273;-61
2022/06/02 14:05:48;;;;;;;13.82;4.00;;;32.60;50.40;;;;;;5060877;28;20197;-63
2022/06/02 14:08:32;;;;;;;7.43;3.67;;;32.40;49.80;;;;;;5050845;28;20286;-59
2022/06/02 14:11:10;;;;;;;12.80;3.78;;;31.90;49.50;;;;;;5058304;28;20207;-64
2022/06/02 14:13:55;;;;;;;9.75;3.78;;;31.60;50.20;;;;;;5060739;28;20208;-61
2022/06/02 14:16:45;;;;;;;14.73;4.80;;;31.50;51.20;;;;;;5061324;28;20183;-63
2022/06/02 14:19:32;;;;;;;16.17;4.32;;;31.30;51.90;;;;;;5059979;28;20213;-61
2022/06/02 14:22:50;;;;;;;14.15;4.50;;;31.30;53.10;;;;;;5060324;28;20174;-64
2022/06/02 14:25:42;;;;;;;14.57;3.72;;;31.20;53.20;;;;;;5033832;28;20209;-62
2022/06/02 14:28:26;;;;;;;13.90;3.60;;;31.30;53.40;;;;;;5060460;28;20668;-60